createdAt,value
2022-07-29T00:06:20.140Z,76.43
2022-07-29T00:16:20.397Z,77.13
2022-07-29T00:26:20.613Z,77.03
2022-07-29T00:36:20.837Z,77.27
2022-07-29T00:46:21.109Z,78.11
2022-07-29T00:56:21.151Z,78.11
2022-07-29T01:06:21.373Z,77.91
2022-07-29T01:16:21.667Z,77.70
2022-07-29T01:26:21.757Z,78.96
2022-07-29T01:36:21.981Z,78.65
2022-07-29T01:46:22.323Z,79.05
2022-07-29T01:56:22.371Z,79.25
2022-07-29T02:06:22.627Z,80.20
2022-07-29T02:16:22.923Z,80.20
2022-07-29T02:26:23.000Z,79.19
2022-07-29T02:36:23.230Z,78.49
2022-07-29T02:46:28.436Z,78.28
2022-07-29T02:56:24.728Z,78.49
2022-07-29T03:06:28.391Z,78.89
2022-07-29T03:16:25.355Z,79.19
2022-07-29T03:26:24.458Z,79.33
2022-07-29T03:36:24.676Z,79.93
2022-07-29T03:46:24.975Z,80.64
2022-07-29T03:56:25.026Z,80.74
2022-07-29T04:06:25.373Z,80.84
2022-07-29T04:16:25.458Z,80.04
2022-07-29T04:26:25.492Z,78.49
2022-07-29T04:36:28.720Z,77.48
2022-07-29T04:46:25.952Z,76.34
2022-07-29T04:56:26.035Z,76.03
2022-07-29T05:06:26.135Z,76.34
2022-07-29T05:16:26.290Z,77.04
2022-07-29T05:26:26.318Z,76.70
2022-07-29T05:36:26.566Z,76.50
2022-07-29T05:46:26.867Z,75.79
2022-07-29T05:56:26.952Z,74.05
2022-07-29T06:06:27.029Z,73.65
2022-07-29T06:16:30.337Z,75.35
2022-07-29T06:26:30.627Z,78.35
2022-07-29T06:36:27.390Z,79.49
2022-07-29T06:46:27.647Z,81.95
2022-07-29T06:56:27.709Z,80.60
2022-07-29T07:06:27.958Z,80.26
2022-07-29T07:16:28.390Z,80.69
2022-07-29T07:26:28.324Z,79.10
2022-07-29T07:36:28.566Z,71.66
2022-07-29T07:46:28.827Z,71.86
2022-07-29T07:56:34.795Z,72.94
2022-07-29T08:06:30.093Z,75.38
2022-07-29T08:16:29.402Z,78.03
2022-07-29T08:26:29.471Z,80.15
2022-07-29T08:36:29.704Z,81.05
2022-07-29T08:46:29.972Z,78.03
2022-07-29T08:56:30.015Z,78.12
2022-07-29T09:06:30.398Z,81.98
2022-07-29T09:16:51.852Z,81.82
2022-07-29T09:26:31.326Z,79.73
2022-07-29T09:36:30.550Z,80.76
2022-07-29T09:46:30.831Z,80.94
2022-07-29T09:56:30.901Z,72.19
2022-07-29T10:06:30.948Z,77.12
2022-07-29T10:16:31.275Z,78.88
2022-07-29T10:26:31.414Z,76.24
2022-07-29T10:36:31.434Z,73.11
2022-07-29T10:46:31.724Z,73.14
2022-07-29T10:56:31.843Z,67.87
2022-07-29T11:06:32.005Z,65.72
2022-07-29T11:16:32.265Z,63.70
2022-07-29T11:26:32.544Z,63.67
2022-07-29T11:36:32.667Z,60.85
2022-07-29T11:46:32.703Z,59.49
2022-07-29T11:56:32.918Z,58.81
2022-07-29T12:06:33.196Z,54.66
2022-07-29T12:16:33.458Z,54.36
2022-07-29T12:26:34.034Z,53.00
2022-07-29T12:36:33.773Z,52.80
2022-07-29T12:46:34.111Z,56.18
2022-07-29T12:56:43.231Z,61.39
2022-07-29T13:06:35.405Z,58.27
2022-07-29T13:16:34.725Z,60.33
2022-07-29T13:26:34.771Z,61.78
2022-07-29T13:36:38.720Z,59.05
2022-07-29T13:46:36.074Z,59.88
2022-07-29T13:56:35.173Z,62.29
2022-07-29T14:06:35.389Z,61.23
2022-07-29T14:16:39.161Z,60.06
2022-07-29T14:26:36.800Z,66.40
2022-07-29T14:36:35.827Z,76.19
2022-07-29T14:46:36.048Z,83.49
2022-07-29T14:56:37.535Z,85.83
2022-07-29T15:06:36.398Z,88.14
2022-07-29T15:16:36.689Z,87.12
2022-07-29T15:26:36.886Z,89.17
2022-07-29T15:36:53.492Z,91.84
2022-07-29T15:46:38.369Z,89.33
2022-07-29T15:56:37.599Z,90.03
2022-07-29T16:06:37.827Z,90.98
2022-07-29T16:16:38.114Z,93.74
2022-07-29T16:26:38.143Z,92.23
2022-07-29T16:36:38.359Z,93.48
2022-07-29T16:46:39.048Z,94.94
2022-07-29T16:56:38.687Z,94.34
2022-07-29T17:06:38.916Z,94.79
2022-07-29T17:16:39.236Z,94.48
2022-07-29T17:26:39.279Z,95.18
2022-07-29T17:36:39.523Z,94.53
2022-07-29T17:46:39.869Z,93.82
2022-07-29T17:56:39.912Z,92.52
2022-07-29T18:06:40.174Z,92.96
2022-07-29T18:16:40.234Z,92.56
2022-07-29T18:26:40.481Z,94.07
2022-07-29T18:36:40.722Z,91.19
2022-07-29T18:46:41.167Z,90.69
2022-07-29T18:56:42.112Z,92.20
2022-07-29T19:06:41.155Z,94.56
2022-07-29T19:16:41.375Z,92.65
2022-07-29T19:26:41.600Z,93.05
2022-07-29T19:36:41.849Z,93.35
2022-07-29T19:46:42.137Z,93.05
2022-07-29T19:56:42.356Z,93.19
2022-07-29T20:06:42.397Z,93.74
2022-07-29T20:16:42.615Z,91.02
2022-07-29T20:26:42.831Z,87.29
2022-07-29T20:36:43.054Z,89.21
2022-07-29T20:46:43.334Z,89.17
2022-07-29T20:56:43.368Z,90.17
2022-07-29T21:06:43.594Z,91.33
2022-07-29T21:16:43.823Z,92.68
2022-07-29T21:26:47.446Z,92.88
2022-07-29T21:36:49.046Z,92.68
2022-07-29T21:46:44.373Z,93.68
2022-07-29T21:56:44.591Z,92.66
2022-07-29T22:06:45.851Z,91.76
2022-07-29T22:16:47.256Z,91.35
2022-07-29T22:26:45.289Z,91.46
2022-07-29T22:36:45.514Z,92.10
2022-07-29T22:46:45.736Z,92.35
2022-07-29T22:56:45.948Z,92.76
2022-07-29T23:06:46.172Z,93.16
2022-07-29T23:16:46.451Z,90.79
2022-07-29T23:26:46.517Z,91.14
2022-07-29T23:36:46.764Z,91.54
2022-07-29T23:46:47.063Z,91.94
2022-07-29T23:56:47.106Z,91.03
